Time;durP1;ratioP1;P1;durP2;ratioP2;P2;SDS_P1;SDS_P2;PMS_P1;PMS_P2;Temp;Humidity;BMP_temperature;BMP_pressure;BME280_temperature;BME280_humidity;BME280_pressure;Samples;Min_cycle;Max_cycle;Signal;HPM_P1;HPM_P2
2023/05/14 00:02:12;;;;;;;7.97;3.80;;;;;;;14.81;66.38;95613.41;5015357;28;20303;-74
2023/05/14 00:04:38;;;;;;;9.40;3.97;;;;;;;14.81;66.17;95604.66;5022052;28;20247;-74
2023/05/14 00:07:04;;;;;;;10.43;3.70;;;;;;;14.90;65.74;95611.34;5017930;28;20234;-73
2023/05/14 00:09:29;;;;;;;6.53;3.83;;;;;;;14.81;65.30;95597.56;5018007;28;20237;-74
2023/05/14 00:11:55;;;;;;;6.70;3.87;;;;;;;14.81;65.53;95602.84;5035521;28;20236;-74
2023/05/14 00:14:21;;;;;;;6.97;3.90;;;;;;;14.87;65.80;95603.84;5033103;28;20237;-75
2023/05/14 00:16:46;;;;;;;8.53;3.87;;;;;;;14.84;64.76;95593.72;5031081;28;20809;-74
2023/05/14 00:19:11;;;;;;;8.27;4.17;;;;;;;14.89;64.79;95593.09;5025842;28;20232;-73
2023/05/14 00:21:37;;;;;;;6.47;3.80;;;;;;;14.91;64.49;95597.13;5005850;28;20222;-73
2023/05/14 00:24:03;;;;;;;9.90;3.60;;;;;;;14.90;64.96;95594.72;5029554;28;20242;-73
2023/05/14 00:26:28;;;;;;;6.43;3.30;;;;;;;14.94;64.22;95588.81;5008324;28;20222;-74
2023/05/14 00:28:54;;;;;;;5.73;3.60;;;;;;;14.93;63.65;95591.66;5028107;28;20245;-73
2023/05/14 00:31:19;;;;;;;6.47;3.60;;;;;;;14.86;64.11;95578.50;5015196;28;20244;-74
2023/05/14 00:33:45;;;;;;;6.97;3.50;;;;;;;14.91;64.24;95586.59;5034532;28;20670;-74
2023/05/14 00:36:10;;;;;;;5.63;3.60;;;;;;;14.85;65.28;95576.91;5026632;28;20267;-74
2023/05/14 00:38:36;;;;;;;7.83;3.60;;;;;;;14.88;64.18;95575.69;5015571;28;21055;-74
2023/05/14 00:41:01;;;;;;;7.13;3.53;;;;;;;14.93;64.32;95573.19;5008700;28;20256;-74
2023/05/14 00:43:27;;;;;;;6.87;3.70;;;;;;;14.85;64.05;95572.41;5006384;28;20265;-72
2023/05/14 00:45:53;;;;;;;5.47;3.40;;;;;;;14.95;64.30;95571.19;5017723;28;20225;-73
2023/05/14 00:48:19;;;;;;;11.23;3.50;;;;;;;14.85;64.76;95569.78;5011431;28;20237;-73
2023/05/14 00:50:44;;;;;;;6.87;3.53;;;;;;;14.85;64.67;95575.06;5001782;28;20253;-73
2023/05/14 00:53:10;;;;;;;5.77;3.60;;;;;;;14.87;63.87;95574.03;5030685;28;20245;-73
2023/05/14 00:55:37;;;;;;;5.77;3.60;;;;;;;14.82;64.57;95572.84;5028201;28;20636;-73
2023/05/14 00:58:06;;;;;;;7.90;3.80;;;;;;;14.75;64.58;95566.81;5018878;28;20716;-73
2023/05/14 01:00:33;;;;;;;5.67;3.43;;;;;;;14.66;63.93;95557.50;5014659;28;20303;-74
2023/05/14 01:03:00;;;;;;;6.70;3.77;;;;;;;14.58;65.47;95559.56;5014587;28;20230;-73
2023/05/14 01:05:28;;;;;;;5.70;3.47;;;;;;;14.56;64.73;95556.34;5001066;28;20230;-74
2023/05/14 01:08:05;;;;;;;6.80;3.60;;;;;;;14.61;64.76;95567.06;5030424;28;20275;-74
2023/05/14 01:10:59;;;;;;;7.30;3.50;;;;;;;14.68;65.23;95565.22;5032974;28;20283;-73
2023/05/14 01:13:26;;;;;;;5.80;3.07;;;;;;;14.62;64.66;95563.38;5000140;28;20235;-74
2023/05/14 01:15:52;;;;;;;6.93;3.30;;;;;;;14.61;64.54;95554.69;5027709;28;20237;-73
2023/05/14 01:18:18;;;;;;;6.10;3.10;;;;;;;14.64;64.53;95551.63;5022020;28;20335;-73
2023/05/14 01:20:44;;;;;;;6.50;3.40;;;;;;;14.61;63.77;95545.97;5010261;28;20317;-74
2023/05/14 01:23:09;;;;;;;4.33;2.90;;;;;;;14.58;64.08;95565.66;5015650;28;20811;-74
2023/05/14 01:25:35;;;;;;;6.23;3.00;;;;;;;14.58;63.14;95570.91;5017881;28;20230;-74
2023/05/14 01:28:18;;;;;;;4.63;2.97;;;;;;;14.56;63.79;95583.50;5014295;28;20237;-73
2023/05/14 01:30:57;;;;;;;6.50;3.30;;;;;;;14.52;63.57;95587.53;5018649;28;20229;-73
2023/05/14 01:33:24;;;;;;;4.57;2.97;;;;;;;14.48;64.41;95583.72;5031043;28;20242;-74
2023/05/14 01:35:52;;;;;;;5.27;3.00;;;;;;;14.41;64.60;95579.47;5017342;28;20237;-73
2023/05/14 01:38:18;;;;;;;6.63;2.80;;;;;;;14.35;64.38;95583.75;5016996;28;20243;-73
2023/05/14 01:40:44;;;;;;;4.40;2.63;;;;;;;14.33;64.00;95577.06;4997833;28;20226;-74
2023/05/14 01:43:10;;;;;;;6.03;2.87;;;;;;;14.43;63.49;95586.16;5022832;28;20520;-73
2023/05/14 01:45:36;;;;;;;4.93;2.73;;;;;;;14.41;63.63;95584.75;5022765;28;20234;-74
2023/05/14 01:48:01;;;;;;;5.97;3.00;;;;;;;14.40;63.26;95583.13;5031848;28;20213;-75
2023/05/14 01:50:27;;;;;;;5.93;3.20;;;;;;;14.25;63.29;95572.81;5016020;28;20316;-73
2023/05/14 01:52:55;;;;;;;4.47;3.00;;;;;;;14.35;63.25;95575.84;5029043;28;20222;-74
2023/05/14 01:55:21;;;;;;;6.83;3.00;;;;;;;14.24;63.19;95571.16;5011953;28;20975;-74
2023/05/14 01:57:46;;;;;;;5.63;3.00;;;;;;;14.21;62.98;95584.75;5034300;28;20817;-74
2023/05/14 02:00:12;;;;;;;6.17;2.90;;;;;;;14.33;63.93;95585.75;4997238;28;20239;-74
2023/05/14 02:02:37;;;;;;;5.13;2.90;;;;;;;14.32;63.92;95592.06;5022714;28;20671;-74
2023/05/14 02:05:03;;;;;;;6.20;2.70;;;;;;;14.24;65.44;95588.78;5035037;28;20826;-73
2023/05/14 02:07:29;;;;;;;6.43;2.87;;;;;;;14.26;65.68;95581.53;5033954;28;20234;-74
2023/05/14 02:09:54;;;;;;;6.53;3.00;;;;;;;14.18;67.33;95586.00;5023036;28;20328;-74
2023/05/14 02:12:20;;;;;;;4.57;2.90;;;;;;;14.15;67.67;95590.84;5034225;28;20236;-74
2023/05/14 02:14:45;;;;;;;8.37;2.93;;;;;;;14.11;67.17;95587.78;5017839;28;20804;-74
2023/05/14 02:17:14;;;;;;;5.57;2.77;;;;;;;14.08;67.72;95584.78;5033069;28;20225;-73
2023/05/14 02:19:40;;;;;;;4.60;2.77;;;;;;;14.09;67.02;95576.66;5030482;28;20229;-73
2023/05/14 02:22:05;;;;;;;3.70;2.70;;;;;;;14.09;68.10;95586.41;5034121;28;20233;-74
2023/05/14 02:24:31;;;;;;;4.23;2.87;;;;;;;14.05;67.87;95588.63;5021832;28;20249;-74
2023/05/14 02:26:58;;;;;;;4.40;2.83;;;;;;;14.11;68.52;95597.53;5033502;28;20242;-73
2023/05/14 02:29:24;;;;;;;3.67;2.70;;;;;;;14.08;68.72;95600.56;5020721;28;20295;-74
2023/05/14 02:31:50;;;;;;;7.10;2.90;;;;;;;14.02;70.66;95604.81;5026359;28;20225;-73
2023/05/14 02:34:15;;;;;;;5.00;2.90;;;;;;;14.01;71.42;95605.03;5035185;28;20242;-74
2023/05/14 02:36:41;;;;;;;4.90;3.00;;;;;;;13.84;72.18;95602.00;5017127;28;20233;-74
2023/05/14 02:39:06;;;;;;;5.13;2.70;;;;;;;13.83;70.91;95610.91;5034604;28;20310;-74
2023/05/14 02:41:31;;;;;;;6.17;2.60;;;;;;;13.71;71.10;95611.72;5017946;28;20230;-73
2023/05/14 02:43:57;;;;;;;4.83;2.90;;;;;;;13.86;70.37;95617.56;5027729;28;20234;-73
2023/05/14 02:46:22;;;;;;;6.80;2.90;;;;;;;13.82;69.95;95611.09;5011922;28;20238;-73
2023/05/14 02:48:48;;;;;;;4.50;2.70;;;;;;;13.80;70.97;95613.94;5019810;28;20246;-73
2023/05/14 02:51:13;;;;;;;6.07;3.00;;;;;;;13.82;70.59;95619.00;5020184;28;20932;-73
2023/05/14 02:53:39;;;;;;;4.27;2.80;;;;;;;13.88;70.50;95618.19;5034012;28;20238;-74
2023/05/14 02:56:04;;;;;;;5.70;3.00;;;;;;;13.92;70.00;95617.56;5035169;28;20237;-73
2023/05/14 02:58:30;;;;;;;6.67;3.17;;;;;;;13.86;70.57;95622.84;5033638;28;20829;-74
2023/05/14 03:00:55;;;;;;;4.10;2.87;;;;;;;13.88;69.64;95618.19;5032308;28;20226;-74
2023/05/14 03:03:21;;;;;;;5.37;3.00;;;;;;;13.84;70.88;95617.78;4999614;28;20238;-74
2023/05/14 03:05:46;;;;;;;5.03;2.80;;;;;;;13.81;70.06;95622.63;5020350;28;20282;-74
2023/05/14 03:08:12;;;;;;;5.63;2.90;;;;;;;13.84;69.29;95616.97;5034964;28;20233;-74
2023/05/14 03:10:37;;;;;;;4.00;2.77;;;;;;;13.94;68.88;95620.03;5018379;28;20268;-73
2023/05/14 03:13:03;;;;;;;10.90;3.30;;;;;;;13.84;70.14;95615.16;5024271;28;20676;-74
2023/05/14 03:15:28;;;;;;;5.83;3.40;;;;;;;13.88;69.98;95599.75;5032303;28;20741;-73
2023/05/14 03:17:54;;;;;;;5.23;2.90;;;;;;;13.89;70.37;95594.31;5016779;28;20268;-74
2023/05/14 03:20:19;;;;;;;8.03;3.20;;;;;;;13.96;69.96;95586.41;5031327;28;20237;-75
2023/05/14 03:22:45;;;;;;;6.53;2.90;;;;;;;13.95;69.35;95590.03;5033482;28;20225;-73
2023/05/14 03:25:10;;;;;;;4.87;2.90;;;;;;;13.96;69.37;95596.94;5012748;28;20735;-72
2023/05/14 03:27:36;;;;;;;5.17;3.30;;;;;;;13.88;69.91;95595.31;5015920;28;20226;-74
2023/05/14 03:30:01;;;;;;;6.77;3.33;;;;;;;13.96;69.25;95599.56;5033153;28;20707;-73
2023/05/14 03:32:27;;;;;;;5.00;2.90;;;;;;;13.96;69.83;95610.09;5031559;28;20349;-74
2023/05/14 03:34:52;;;;;;;4.20;2.90;;;;;;;13.72;70.91;95606.25;5009563;28;20226;-74
2023/05/14 03:37:18;;;;;;;5.23;3.03;;;;;;;13.76;72.26;95617.16;5020110;28;21019;-74
2023/05/14 03:39:43;;;;;;;4.43;3.07;;;;;;;13.82;72.89;95622.44;5017512;28;20225;-74
2023/05/14 03:42:09;;;;;;;4.40;2.90;;;;;;;13.78;73.41;95620.44;5033790;28;20237;-74
2023/05/14 03:44:37;;;;;;;7.00;3.17;;;;;;;13.81;74.82;95610.28;5030261;28;20605;-74
2023/05/14 03:47:03;;;;;;;5.87;3.40;;;;;;;13.74;76.48;95613.94;5018279;28;20330;-74
2023/05/14 03:49:28;;;;;;;5.67;3.40;;;;;;;13.64;78.94;95613.50;5019346;28;20348;-74
2023/05/14 03:51:54;;;;;;;6.17;3.10;;;;;;;13.73;75.35;95614.97;5001499;28;20226;-73
2023/05/14 03:54:19;;;;;;;6.03;3.20;;;;;;;13.63;76.45;95612.72;5011829;28;20244;-75
2023/05/14 03:56:47;;;;;;;6.00;3.13;;;;;;;13.58;76.07;95609.06;5015952;28;20308;-74
2023/05/14 03:59:12;;;;;;;5.07;3.07;;;;;;;13.54;75.44;95613.94;5018501;28;20261;-74
2023/05/14 04:01:38;;;;;;;5.43;3.10;;;;;;;13.57;75.97;95610.06;5031851;28;20229;-75
2023/05/14 04:04:03;;;;;;;5.27;3.20;;;;;;;13.61;75.98;95606.03;5016005;28;20244;-74
2023/05/14 04:06:29;;;;;;;4.80;3.20;;;;;;;13.57;74.64;95607.44;5030517;28;20233;-74
2023/05/14 04:08:55;;;;;;;5.07;3.30;;;;;;;13.64;75.05;95614.31;5042278;28;20671;-73
2023/05/14 04:11:20;;;;;;;4.03;3.07;;;;;;;13.57;75.91;95617.94;5009222;28;20234;-74
2023/05/14 04:13:46;;;;;;;3.77;2.93;;;;;;;13.54;75.28;95621.00;5017668;28;20253;-74
2023/05/14 04:16:12;;;;;;;5.20;3.10;;;;;;;13.55;75.71;95620.78;5019627;28;20280;-74
2023/05/14 04:18:37;;;;;;;6.03;3.17;;;;;;;13.55;76.67;95623.44;5005066;28;20750;-73
2023/05/14 04:21:03;;;;;;;6.23;3.13;;;;;;;13.62;74.54;95628.69;5016365;28;20233;-74
2023/05/14 04:23:30;;;;;;;5.33;3.10;;;;;;;13.62;74.49;95629.50;5027753;28;20698;-74
2023/05/14 04:25:56;;;;;;;4.57;2.90;;;;;;;13.54;75.48;95624.44;5032076;28;21034;-74
2023/05/14 04:28:21;;;;;;;5.80;3.13;;;;;;;13.50;76.06;95623.22;5028358;28;20284;-74
2023/05/14 04:30:47;;;;;;;4.83;3.10;;;;;;;13.58;74.65;95636.19;5023865;28;20229;-73
2023/05/14 04:33:13;;;;;;;5.23;3.30;;;;;;;13.49;75.79;95632.13;5020092;28;20611;-74
2023/05/14 04:35:38;;;;;;;5.40;3.10;;;;;;;13.67;73.71;95642.88;5015129;28;20230;-74
2023/05/14 04:38:04;;;;;;;5.23;3.20;;;;;;;13.70;73.25;95645.09;5015951;28;20234;-73
2023/05/14 04:40:30;;;;;;;9.07;3.50;;;;;;;13.65;72.84;95646.72;5012611;28;20258;-73
2023/05/14 04:42:56;;;;;;;7.73;3.30;;;;;;;13.72;72.79;95658.88;5018444;28;20226;-73
2023/05/14 04:45:21;;;;;;;5.23;3.30;;;;;;;13.71;71.82;95651.97;5013251;28;20246;-74
2023/05/14 04:47:47;;;;;;;7.03;3.40;;;;;;;13.63;74.23;95654.81;5016518;28;20226;-74
2023/05/14 04:50:13;;;;;;;7.37;3.30;;;;;;;13.54;73.50;95652.56;5015730;28;20749;-74
2023/05/14 04:52:38;;;;;;;5.50;2.87;;;;;;;13.44;75.23;95666.91;5030663;28;20241;-74
2023/05/14 04:55:04;;;;;;;4.90;2.90;;;;;;;13.38;77.27;95664.25;5012351;28;20246;-74
2023/05/14 04:57:30;;;;;;;8.23;3.20;;;;;;;13.38;75.47;95665.06;5024765;28;20230;-74
2023/05/14 04:59:55;;;;;;;5.23;3.20;;;;;;;13.37;78.08;95679.22;5028710;28;20232;-74
2023/05/14 05:02:21;;;;;;;6.13;3.40;;;;;;;13.26;79.58;95674.53;5032858;28;20738;-74
2023/05/14 05:04:46;;;;;;;5.87;3.20;;;;;;;13.30;80.58;95683.63;5032149;28;20233;-74
2023/05/14 05:07:12;;;;;;;6.50;3.23;;;;;;;13.10;84.81;95687.22;5031909;28;20226;-74
2023/05/14 05:09:38;;;;;;;5.07;3.33;;;;;;;13.09;86.19;95690.81;5029484;28;20230;-74
2023/05/14 05:12:04;;;;;;;5.97;3.20;;;;;;;13.04;83.46;95699.28;5029877;28;20229;-73
2023/05/14 05:14:29;;;;;;;5.67;3.23;;;;;;;12.91;86.42;95704.47;5006518;28;20226;-74
2023/05/14 05:16:55;;;;;;;6.33;3.47;;;;;;;12.82;86.33;95716.16;5029091;28;20711;-73
2023/05/14 05:19:20;;;;;;;8.17;3.40;;;;;;;12.75;87.59;95713.47;5013070;28;20234;-73
2023/05/14 05:21:46;;;;;;;5.93;3.40;;;;;;;12.64;87.45;95718.44;5023102;28;20360;-74
2023/05/14 05:24:12;;;;;;;7.17;3.57;;;;;;;12.69;88.19;95726.56;5013483;28;20738;-74
2023/05/14 05:26:37;;;;;;;8.03;4.00;;;;;;;12.73;90.01;95726.00;5031597;28;20295;-74
2023/05/14 05:29:03;;;;;;;7.23;4.00;;;;;;;12.74;89.53;95725.00;5030199;28;20241;-74
2023/05/14 05:31:29;;;;;;;7.70;4.00;;;;;;;12.66;92.56;95724.31;5017651;28;20332;-74
2023/05/14 05:33:55;;;;;;;7.47;4.20;;;;;;;12.46;93.41;95726.03;5031518;28;20232;-75
2023/05/14 05:36:20;;;;;;;10.40;4.13;;;;;;;12.23;93.88;95738.56;5029869;28;20221;-75
2023/05/14 05:38:46;;;;;;;8.57;4.30;;;;;;;12.33;95.97;95734.59;5029128;28;20279;-75
2023/05/14 05:41:11;;;;;;;6.73;4.20;;;;;;;12.23;98.76;95735.94;5034893;28;20299;-74
2023/05/14 05:43:37;;;;;;;7.30;4.20;;;;;;;12.38;98.67;95736.66;5033522;28;20652;-74
2023/05/14 05:46:02;;;;;;;8.77;4.50;;;;;;;12.25;100.00;95736.56;5031408;28;20233;-75
2023/05/14 05:48:28;;;;;;;6.73;4.27;;;;;;;12.20;100.00;95734.50;5034591;28;20786;-75
2023/05/14 05:50:53;;;;;;;7.93;4.27;;;;;;;11.99;100.00;95737.94;5024552;28;20668;-75
2023/05/14 05:53:19;;;;;;;10.17;4.20;;;;;;;12.12;100.00;95740.69;5035742;28;20244;-75
2023/05/14 05:55:44;;;;;;;8.17;4.50;;;;;;;12.27;100.00;95750.31;5036653;28;20609;-74
2023/05/14 05:58:09;;;;;;;9.63;4.47;;;;;;;12.25;100.00;95741.81;4999166;28;20301;-74
2023/05/14 06:00:35;;;;;;;10.77;4.63;;;;;;;12.26;99.59;95738.97;5049605;28;20258;-75
2023/05/14 06:03:01;;;;;;;6.33;4.27;;;;;;;11.88;100.00;95727.94;5020017;28;20237;-74
2023/05/14 06:05:26;;;;;;;7.33;4.40;;;;;;;11.89;100.00;95731.41;5034755;28;20255;-75
2023/05/14 06:07:54;;;;;;;8.00;4.30;;;;;;;11.90;100.00;95725.94;5019388;28;20249;-74
2023/05/14 06:10:20;;;;;;;9.80;4.60;;;;;;;11.93;100.00;95730.84;5033759;28;20235;-75
2023/05/14 06:12:45;;;;;;;10.03;4.63;;;;;;;11.90;100.00;95725.13;5016578;28;20226;-75
2023/05/14 06:15:11;;;;;;;10.00;4.77;;;;;;;11.96;100.00;95732.25;5032565;28;20233;-75
2023/05/14 06:17:37;;;;;;;8.73;4.50;;;;;;;12.04;100.00;95732.13;5034199;28;20242;-76
2023/05/14 06:20:04;;;;;;;9.33;5.03;;;;;;;11.91;100.00;95737.25;5031636;28;20249;-75
2023/05/14 06:22:30;;;;;;;8.77;4.90;;;;;;;11.88;100.00;95735.81;5025573;28;20303;-76
2023/05/14 06:24:55;;;;;;;12.33;5.17;;;;;;;11.89;100.00;95726.16;5003576;28;20238;-76
2023/05/14 06:27:20;;;;;;;10.57;5.20;;;;;;;11.96;100.00;95717.34;5030418;28;20621;-75
2023/05/14 06:29:46;;;;;;;8.10;4.73;;;;;;;12.13;100.00;95728.38;5018493;28;20318;-76
2023/05/14 06:32:14;;;;;;;12.33;5.10;;;;;;;11.92;100.00;95725.75;5029207;28;20295;-76
2023/05/14 06:34:40;;;;;;;10.73;5.30;;;;;;;11.80;100.00;95727.25;5033685;28;20256;-75
2023/05/14 06:37:05;;;;;;;12.97;5.10;;;;;;;11.82;100.00;95743.63;5018992;28;20240;-76
2023/05/14 06:39:31;;;;;;;10.73;5.67;;;;;;;11.80;100.00;95742.97;5037647;28;20233;-76
2023/05/14 06:41:56;;;;;;;10.53;5.43;;;;;;;11.67;100.00;95742.84;5031426;28;20234;-75
2023/05/14 06:44:22;;;;;;;13.40;5.80;;;;;;;11.73;100.00;95727.19;5025990;28;20234;-76
2023/05/14 06:46:47;;;;;;;10.90;5.60;;;;;;;11.74;100.00;95730.63;5031818;28;20937;-75
2023/05/14 06:49:13;;;;;;;10.90;5.30;;;;;;;11.68;100.00;95726.94;5035858;28;20292;-75
2023/05/14 06:51:39;;;;;;;11.27;5.73;;;;;;;11.67;100.00;95725.28;5008355;28;20284;-76
2023/05/14 06:54:05;;;;;;;9.93;5.23;;;;;;;11.85;100.00;95723.06;5033990;28;20245;-75
2023/05/14 06:56:30;;;;;;;11.53;5.67;;;;;;;11.89;100.00;95710.41;5035021;28;20217;-75
2023/05/14 06:58:56;;;;;;;10.27;5.57;;;;;;;11.89;100.00;95699.91;5028877;28;20669;-75
2023/05/14 07:01:21;;;;;;;10.47;5.53;;;;;;;11.75;100.00;95709.44;5001352;28;21096;-74
2023/05/14 07:03:47;;;;;;;9.60;5.60;;;;;;;11.62;100.00;95706.69;5040260;28;20230;-74
2023/05/14 07:06:12;;;;;;;12.03;5.80;;;;;;;11.85;100.00;95709.13;5001834;28;20233;-75
2023/05/14 07:08:38;;;;;;;12.07;6.10;;;;;;;12.04;100.00;95719.00;5014780;28;21035;-74
2023/05/14 07:11:03;;;;;;;11.07;5.73;;;;;;;11.95;100.00;95726.19;5036456;28;20309;-75
2023/05/14 07:13:29;;;;;;;9.83;6.10;;;;;;;11.93;100.00;95716.91;5023249;28;20306;-75
2023/05/14 07:15:55;;;;;;;11.43;5.97;;;;;;;12.00;100.00;95718.59;5028520;28;20222;-76
2023/05/14 07:18:21;;;;;;;9.73;5.60;;;;;;;11.76;100.00;95737.31;5009123;28;20310;-76
2023/05/14 07:20:46;;;;;;;9.03;5.87;;;;;;;12.06;100.00;95759.00;5031372;28;20583;-75
2023/05/14 07:23:12;;;;;;;12.10;6.03;;;;;;;12.01;100.00;95767.41;5028210;28;20303;-75
2023/05/14 07:25:37;;;;;;;11.07;5.90;;;;;;;11.98;100.00;95756.50;5011020;28;20698;-74
2023/05/14 07:28:03;;;;;;;11.33;5.60;;;;;;;11.83;100.00;95738.19;5018952;28;20253;-76
2023/05/14 07:30:28;;;;;;;10.57;5.40;;;;;;;11.67;100.00;95734.97;5017833;28;20252;-75
2023/05/14 07:32:54;;;;;;;10.77;5.37;;;;;;;11.64;100.00;95738.78;5031755;28;20226;-76
2023/05/14 07:35:19;;;;;;;10.10;5.47;;;;;;;11.52;100.00;95741.06;5028964;28;20233;-76
2023/05/14 07:37:45;;;;;;;10.73;5.40;;;;;;;11.49;100.00;95732.75;5020360;28;20229;-74
2023/05/14 07:40:10;;;;;;;10.70;5.73;;;;;;;11.43;100.00;95736.13;5005809;28;20313;-74
2023/05/14 07:42:36;;;;;;;10.87;5.83;;;;;;;11.48;100.00;95739.00;5033002;28;20230;-75
2023/05/14 07:45:02;;;;;;;11.77;5.80;;;;;;;11.46;100.00;95738.38;5018921;28;20301;-74
2023/05/14 07:47:28;;;;;;;11.63;5.83;;;;;;;11.45;100.00;95747.22;5014715;28;20658;-75
2023/05/14 07:49:55;;;;;;;10.83;5.37;;;;;;;11.67;100.00;95748.91;5030637;28;20253;-75
2023/05/14 07:52:20;;;;;;;8.70;5.50;;;;;;;11.60;100.00;95752.44;4999768;28;20229;-76
2023/05/14 07:54:46;;;;;;;13.77;5.87;;;;;;;11.68;100.00;95750.53;5001903;28;20636;-75
2023/05/14 07:57:11;;;;;;;14.87;6.90;;;;;;;11.72;100.00;95762.28;5023437;28;20238;-75
2023/05/14 07:59:37;;;;;;;15.33;7.17;;;;;;;11.81;100.00;95762.97;5017555;28;20230;-75
2023/05/14 08:02:02;;;;;;;10.23;6.20;;;;;;;11.70;100.00;95764.25;5032810;28;20232;-75
2023/05/14 08:04:28;;;;;;;11.80;6.00;;;;;;;11.88;100.00;95761.25;5033609;28;20889;-75
2023/05/14 08:06:55;;;;;;;11.27;6.53;;;;;;;11.95;100.00;95760.31;5033114;28;20218;-75
2023/05/14 08:09:20;;;;;;;10.97;6.00;;;;;;;12.05;100.00;95760.00;5044527;28;20229;-76
2023/05/14 08:11:46;;;;;;;10.77;5.87;;;;;;;11.97;100.00;95754.88;5003744;28;20343;-76
2023/05/14 08:14:11;;;;;;;10.03;6.00;;;;;;;11.97;100.00;95750.44;5014255;28;20238;-77
2023/05/14 08:16:37;;;;;;;11.63;5.60;;;;;;;11.99;100.00;95756.31;5016923;28;20252;-76
2023/05/14 08:19:03;;;;;;;11.90;6.13;;;;;;;11.94;100.00;95750.00;5030565;28;20241;-76
2023/05/14 08:21:28;;;;;;;11.30;6.17;;;;;;;11.87;100.00;95747.31;5029218;28;20782;-76
2023/05/14 08:23:54;;;;;;;12.50;5.93;;;;;;;11.57;100.00;95727.41;5022296;28;20334;-76
2023/05/14 08:26:20;;;;;;;13.40;6.40;;;;;;;11.73;100.00;95732.44;5030254;28;20229;-77
2023/05/14 08:28:46;;;;;;;12.60;6.33;;;;;;;11.95;100.00;95726.19;5019715;28;20610;-76
2023/05/14 08:31:13;;;;;;;12.90;6.10;;;;;;;12.04;100.00;95725.06;5030796;28;20230;-77
2023/05/14 08:33:39;;;;;;;10.93;6.27;;;;;;;11.90;100.00;95727.75;5022498;28;20237;-76
2023/05/14 08:36:06;;;;;;;12.37;6.33;;;;;;;11.96;100.00;95727.03;5026701;28;20233;-75
2023/05/14 08:38:37;;;;;;;8.93;5.80;;;;;;;11.87;100.00;95736.81;5033505;28;20229;-75
2023/05/14 08:41:04;;;;;;;10.93;6.00;;;;;;;11.94;100.00;95729.03;5017756;28;21137;-76
2023/05/14 08:43:52;;;;;;;10.90;5.90;;;;;;;11.85;100.00;95717.00;5023959;28;20307;-76
2023/05/14 08:46:17;;;;;;;8.60;5.70;;;;;;;12.02;100.00;95715.75;5034113;28;20741;-76
2023/05/14 08:48:43;;;;;;;10.27;6.10;;;;;;;12.09;100.00;95696.44;5005611;28;20237;-75
2023/05/14 08:51:08;;;;;;;10.97;6.20;;;;;;;12.23;100.00;95707.84;5008788;28;20229;-75
2023/05/14 08:53:34;;;;;;;9.30;6.00;;;;;;;12.15;100.00;95718.50;5029699;28;20233;-76
2023/05/14 08:56:02;;;;;;;10.30;5.97;;;;;;;12.11;100.00;95712.81;5041491;28;20230;-75
2023/05/14 08:58:28;;;;;;;8.57;5.63;;;;;;;11.85;100.00;95698.66;5020920;28;20234;-76
2023/05/14 09:00:53;;;;;;;9.53;5.37;;;;;;;11.71;100.00;95704.78;5024256;28;20721;-76
2023/05/14 09:03:19;;;;;;;9.50;6.10;;;;;;;11.60;100.00;95705.25;5029377;28;20241;-75
2023/05/14 09:05:45;;;;;;;9.20;6.10;;;;;;;11.67;100.00;95712.19;5033358;28;20259;-76
2023/05/14 09:08:13;;;;;;;9.93;6.47;;;;;;;11.77;100.00;95715.34;4999890;28;20246;-76
2023/05/14 09:10:39;;;;;;;9.07;6.20;;;;;;;11.89;100.00;95713.81;5032078;28;20252;-75
2023/05/14 09:13:04;;;;;;;9.40;6.47;;;;;;;11.84;100.00;95707.53;5015286;28;20250;-76
2023/05/14 09:15:31;;;;;;;10.70;6.20;;;;;;;11.83;100.00;95709.34;5027769;28;20315;-76
2023/05/14 09:17:56;;;;;;;9.77;5.87;;;;;;;11.79;100.00;95700.22;5028053;28;20257;-76
2023/05/14 09:20:22;;;;;;;9.23;6.00;;;;;;;11.87;100.00;95696.69;5007552;28;20253;-76
2023/05/14 09:22:51;;;;;;;8.83;6.00;;;;;;;11.78;100.00;95706.47;5015329;28;20233;-76
2023/05/14 09:25:16;;;;;;;11.97;6.23;;;;;;;11.66;100.00;95709.72;5028752;28;20225;-75
2023/05/14 09:27:42;;;;;;;8.50;6.00;;;;;;;11.78;100.00;95705.66;5029968;28;20298;-75
2023/05/14 09:30:09;;;;;;;10.83;5.63;;;;;;;11.79;100.00;95708.09;5029907;28;20230;-76
2023/05/14 09:32:44;;;;;;;12.10;6.17;;;;;;;11.80;100.00;95683.47;5015717;28;20230;-76
2023/05/14 09:35:20;;;;;;;10.47;5.93;;;;;;;11.53;100.00;95692.88;5031618;28;20252;-76
2023/05/14 09:37:50;;;;;;;8.93;5.50;;;;;;;11.45;100.00;95697.44;5030338;28;20232;-76
2023/05/14 09:40:18;;;;;;;8.83;5.73;;;;;;;11.44;100.00;95687.91;5016453;28;20239;-76
2023/05/14 09:42:44;;;;;;;10.97;6.13;;;;;;;11.56;100.00;95683.03;5031828;28;20232;-76
2023/05/14 09:45:10;;;;;;;8.73;5.70;;;;;;;11.64;100.00;95670.59;5029097;28;20234;-75
2023/05/14 09:47:36;;;;;;;10.53;6.30;;;;;;;11.62;100.00;95675.22;5024325;28;20303;-75
2023/05/14 09:50:02;;;;;;;11.33;6.30;;;;;;;11.64;100.00;95675.84;5015867;28;20252;-76
2023/05/14 09:52:27;;;;;;;11.30;6.40;;;;;;;11.74;100.00;95679.00;5013001;28;20613;-75
2023/05/14 09:54:53;;;;;;;10.23;6.73;;;;;;;11.64;100.00;95675.03;5026965;28;20229;-76
2023/05/14 09:57:19;;;;;;;12.30;6.60;;;;;;;11.53;100.00;95671.09;5029982;28;20233;-76
2023/05/14 09:59:45;;;;;;;10.10;6.47;;;;;;;11.62;100.00;95666.53;5019963;28;21431;-76
2023/05/14 10:02:25;;;;;;;10.50;6.30;;;;;;;11.50;100.00;95676.72;5008560;28;20704;-78
2023/05/14 10:04:52;;;;;;;11.03;6.20;;;;;;;11.38;100.00;95671.16;5007921;28;20240;-78
2023/05/14 10:07:20;;;;;;;10.77;6.60;;;;;;;11.40;100.00;95658.66;5017142;28;20233;-76
2023/05/14 10:09:46;;;;;;;12.77;6.50;;;;;;;11.53;100.00;95642.25;5028661;28;20290;-76
2023/05/14 10:12:11;;;;;;;10.37;6.43;;;;;;;11.58;100.00;95646.94;5034862;28;20249;-76
2023/05/14 10:14:41;;;;;;;12.00;6.57;;;;;;;11.52;100.00;95638.81;5019094;28;20377;-75
2023/05/14 10:17:06;;;;;;;9.33;6.20;;;;;;;11.39;100.00;95649.16;5014849;28;20226;-76
2023/05/14 10:19:34;;;;;;;10.30;6.40;;;;;;;11.25;100.00;95636.09;5017371;28;20299;-76
2023/05/14 10:22:03;;;;;;;11.47;7.10;;;;;;;11.22;100.00;95631.25;5013456;28;20258;-76
2023/05/14 10:24:29;;;;;;;8.83;6.63;;;;;;;11.32;100.00;95629.16;5021200;28;20234;-75
2023/05/14 10:26:54;;;;;;;10.40;7.10;;;;;;;11.32;100.00;95627.31;5022176;28;20222;-74
2023/05/14 10:29:30;;;;;;;10.30;6.90;;;;;;;11.33;100.00;95631.59;5031129;28;20623;-75
2023/05/14 10:31:55;;;;;;;12.70;7.27;;;;;;;11.55;100.00;95650.75;5026503;28;20283;-76
2023/05/14 10:34:30;;;;;;;9.80;6.83;;;;;;;11.77;100.00;95662.91;5025742;28;20234;-74
2023/05/14 10:36:59;;;;;;;10.73;7.10;;;;;;;11.52;100.00;95645.88;5036394;28;20232;-74
2023/05/14 10:39:42;;;;;;;11.13;7.23;;;;;;;11.30;100.00;95644.22;5035285;28;20242;-75
2023/05/14 10:42:10;;;;;;;14.67;7.63;;;;;;;11.24;100.00;95642.38;5017335;28;20229;-75
2023/05/14 10:44:36;;;;;;;12.27;7.50;;;;;;;11.30;100.00;95636.38;5009531;28;20234;-76
2023/05/14 10:47:02;;;;;;;11.40;7.50;;;;;;;11.37;100.00;95626.75;5031534;28;20245;-75
2023/05/14 10:49:27;;;;;;;10.90;7.53;;;;;;;11.19;100.00;95629.00;5034032;28;20240;-76
2023/05/14 10:51:53;;;;;;;13.03;8.03;;;;;;;11.20;100.00;95636.66;5025226;28;20214;-75
2023/05/14 10:54:18;;;;;;;11.90;8.37;;;;;;;11.30;100.00;95641.59;5034159;28;20266;-75
2023/05/14 10:56:47;;;;;;;14.00;7.90;;;;;;;11.50;100.00;95629.53;5041492;28;20302;-75
2023/05/14 10:59:16;;;;;;;13.27;7.90;;;;;;;11.64;100.00;95639.13;5017647;28;20242;-75
2023/05/14 11:01:41;;;;;;;11.20;7.33;;;;;;;11.40;100.00;95627.22;5032436;28;20229;-74
2023/05/14 11:04:07;;;;;;;10.53;7.20;;;;;;;11.39;100.00;95615.09;5019902;28;20222;-77
2023/05/14 11:06:33;;;;;;;10.80;7.40;;;;;;;11.38;100.00;95626.59;5015206;28;20234;-76
2023/05/14 11:08:59;;;;;;;11.37;7.57;;;;;;;11.38;100.00;95633.63;5018407;28;20237;-75
2023/05/14 11:11:25;;;;;;;12.23;7.73;;;;;;;11.43;100.00;95626.03;5033811;28;20325;-75
2023/05/14 11:13:50;;;;;;;11.10;7.40;;;;;;;11.40;100.00;95626.41;5034057;28;20326;-75
2023/05/14 11:16:17;;;;;;;11.13;7.50;;;;;;;11.48;100.00;95631.53;5034259;28;20946;-76
2023/05/14 11:18:43;;;;;;;10.87;7.40;;;;;;;11.71;100.00;95637.41;5029846;28;20230;-75
2023/05/14 11:21:08;;;;;;;14.90;8.17;;;;;;;11.87;100.00;95639.75;5032799;28;20240;-75
2023/05/14 11:23:34;;;;;;;14.60;8.10;;;;;;;11.97;100.00;95632.38;5032563;28;20234;-75